Time;durP1;ratioP1;P1;durP2;ratioP2;P2;SDS_P1;SDS_P2;PMS_P1;PMS_P2;Temp;Humidity;BMP_temperature;BMP_pressure;BME280_temperature;BME280_humidity;BME280_pressure;Samples;Min_cycle;Max_cycle;Signal;HPM_P1;HPM_P2
2022/08/14 00:00:06;;;;;;;7.30;6.80;;;;;;;;;;5082260;28;20277;-66
2022/08/14 00:02:33;;;;;;;7.35;6.85;;;;;;;;;;5063645;28;20204;-66
2022/08/14 00:05:01;;;;;;;7.38;6.78;;;;;;;;;;5078566;28;20212;-66
2022/08/14 00:07:29;;;;;;;7.80;7.25;;;;;;;;;;5078574;28;20228;-66
2022/08/14 00:09:57;;;;;;;8.18;7.57;;;;;;;;;;5079018;28;20204;-66
2022/08/14 00:12:25;;;;;;;7.90;7.30;;;;;;;;;;5077865;28;20212;-67
2022/08/14 00:14:52;;;;;;;7.60;7.10;;;;;;;;;;5091295;28;20221;-66
2022/08/14 00:17:20;;;;;;;7.60;7.10;;;;;;;;;;5099104;28;20344;-66
2022/08/14 00:19:47;;;;;;;7.60;7.10;;;;;;;;;;5094579;28;20257;-66
2022/08/14 00:22:17;;;;;;;7.53;7.00;;;;;;;;;;5077362;28;20211;-66
2022/08/14 00:24:46;;;;;;;7.90;7.30;;;;;;;;;;5079059;28;20203;-66
2022/08/14 00:27:14;;;;;;;7.55;6.95;;;;;;;;;;5084605;28;20261;-66
2022/08/14 00:29:41;;;;;;;7.78;7.28;;;;;;;;;;5097546;28;20203;-66
2022/08/14 00:32:08;;;;;;;7.38;6.88;;;;;;;;;;5097722;28;20261;-66
2022/08/14 00:34:36;;;;;;;7.60;7.03;;;;;;;;;;5098432;28;20203;-66
2022/08/14 00:37:04;;;;;;;7.97;7.47;;;;;;;;;;5098050;28;20534;-67
2022/08/14 00:39:32;;;;;;;7.55;7.05;;;;;;;;;;5098727;28;20203;-67
2022/08/14 00:42:01;;;;;;;7.72;7.22;;;;;;;;;;5098152;28;20632;-67
2022/08/14 00:44:29;;;;;;;7.55;7.05;;;;;;;;;;5088801;28;20200;-66
2022/08/14 00:46:57;;;;;;;7.68;7.07;;;;;;;;;;5090901;28;20302;-66
2022/08/14 00:49:24;;;;;;;7.85;7.35;;;;;;;;;;5098498;28;20214;-66
2022/08/14 00:51:52;;;;;;;7.75;7.25;;;;;;;;;;5084716;28;20516;-66
2022/08/14 00:54:19;;;;;;;7.53;7.03;;;;;;;;;;5077833;28;20581;-66
2022/08/14 00:56:47;;;;;;;7.72;7.22;;;;;;;;;;5077771;28;20303;-66
2022/08/14 00:59:16;;;;;;;7.30;6.80;;;;;;;;;;5077966;28;20215;-66
2022/08/14 01:01:45;;;;;;;7.10;6.60;;;;;;;;;;5078987;28;20200;-66
2022/08/14 01:04:12;;;;;;;6.95;6.55;;;;;;;;;;5077329;28;20215;-67
2022/08/14 01:06:40;;;;;;;7.90;7.30;;;;;;;;;;5084869;28;20196;-67
2022/08/14 01:09:07;;;;;;;7.43;6.93;;;;;;;;;;5098340;28;20215;-66
2022/08/14 01:11:35;;;;;;;7.60;7.10;;;;;;;;;;5097258;28;20207;-66
2022/08/14 01:14:02;;;;;;;8.02;7.53;;;;;;;;;;5097444;28;20204;-66
2022/08/14 01:16:31;;;;;;;7.68;7.18;;;;;;;;;;5090945;28;20592;-66
2022/08/14 01:21:46;;;;;;;7.50;7.00;;;;;;;;;;5085204;28;20206;-66
2022/08/14 01:24:14;;;;;;;7.78;7.18;;;;;;;;;;5085413;28;20223;-66
2022/08/14 01:26:42;;;;;;;7.57;7.07;;;;;;;;;;5076529;28;20616;-66
2022/08/14 01:29:10;;;;;;;8.07;7.57;;;;;;;;;;5077968;28;20658;-66
2022/08/14 01:31:39;;;;;;;7.50;7.00;;;;;;;;;;5084143;28;20207;-66
2022/08/14 01:34:07;;;;;;;7.78;7.28;;;;;;;;;;5094448;28;20296;-66
2022/08/14 01:36:37;;;;;;;8.07;7.57;;;;;;;;;;5096952;28;20560;-66
2022/08/14 01:39:08;;;;;;;7.35;6.85;;;;;;;;;;5097355;28;20203;-66
2022/08/14 01:41:36;;;;;;;8.00;7.50;;;;;;;;;;5096881;28;20554;-66
2022/08/14 01:44:05;;;;;;;7.78;7.22;;;;;;;;;;5089738;28;20193;-66
2022/08/14 01:46:33;;;;;;;7.93;7.32;;;;;;;;;;5077013;28;20273;-66
2022/08/14 01:49:02;;;;;;;7.57;7.07;;;;;;;;;;5076737;28;20205;-66
2022/08/14 01:51:31;;;;;;;7.35;6.85;;;;;;;;;;5076932;28;20299;-66
2022/08/14 01:53:59;;;;;;;7.38;6.88;;;;;;;;;;5083848;28;20207;-66
2022/08/14 01:56:36;;;;;;;7.88;7.38;;;;;;;;;;5096417;28;20295;-66
2022/08/14 01:59:05;;;;;;;7.88;7.38;;;;;;;;;;5097090;28;20218;-66
2022/08/14 02:01:33;;;;;;;7.95;7.45;;;;;;;;;;5084704;28;20334;-66
2022/08/14 02:04:01;;;;;;;7.75;7.25;;;;;;;;;;5077527;28;20265;-66
2022/08/14 02:06:29;;;;;;;7.95;7.45;;;;;;;;;;5076664;28;20208;-66
2022/08/14 02:08:56;;;;;;;7.75;7.25;;;;;;;;;;5077261;28;20489;-66
2022/08/14 02:11:24;;;;;;;8.35;7.82;;;;;;;;;;5082138;28;20200;-66
2022/08/14 02:13:58;;;;;;;8.20;7.60;;;;;;;;;;5097565;28;20538;-66
2022/08/14 02:16:28;;;;;;;8.32;7.72;;;;;;;;;;5097096;28;20204;-66
2022/08/14 02:18:56;;;;;;;7.78;7.28;;;;;;;;;;5087378;28;20310;-66
2022/08/14 02:21:24;;;;;;;8.30;7.70;;;;;;;;;;5077405;28;20196;-66
2022/08/14 02:23:53;;;;;;;7.90;7.40;;;;;;;;;;5085779;28;20265;-66
2022/08/14 02:26:21;;;;;;;7.97;7.47;;;;;;;;;;5084013;28;20230;-66
2022/08/14 02:28:50;;;;;;;7.97;7.47;;;;;;;;;;5076751;28;20204;-66
2022/08/14 02:31:19;;;;;;;8.07;7.57;;;;;;;;;;5077230;28;20196;-66
2022/08/14 02:33:47;;;;;;;7.95;7.35;;;;;;;;;;5077088;28;20204;-66
2022/08/14 02:36:16;;;;;;;7.50;7.00;;;;;;;;;;5061142;28;20293;-66
2022/08/14 02:38:43;;;;;;;8.55;7.95;;;;;;;;;;5077347;28;20259;-66
2022/08/14 02:41:12;;;;;;;8.23;7.63;;;;;;;;;;5080365;28;20207;-66
2022/08/14 02:43:40;;;;;;;7.50;7.00;;;;;;;;;;5093117;28;20290;-66
2022/08/14 02:46:09;;;;;;;8.52;7.93;;;;;;;;;;5076218;28;20269;-66
2022/08/14 02:48:38;;;;;;;8.52;7.93;;;;;;;;;;5076837;28;20238;-66
2022/08/14 02:51:07;;;;;;;8.07;7.55;;;;;;;;;;5087690;28;20199;-66
2022/08/14 02:53:35;;;;;;;8.32;7.82;;;;;;;;;;5088605;28;20249;-66
2022/08/14 02:56:03;;;;;;;8.13;7.63;;;;;;;;;;5084430;28;20196;-66
2022/08/14 02:58:31;;;;;;;7.88;7.38;;;;;;;;;;5076675;28;20224;-66
2022/08/14 03:00:58;;;;;;;8.40;7.88;;;;;;;;;;5079357;28;20204;-66
2022/08/14 03:03:25;;;;;;;8.45;7.85;;;;;;;;;;5096958;28;20200;-66
2022/08/14 03:05:54;;;;;;;7.93;7.43;;;;;;;;;;5095631;28;20218;-66
2022/08/14 03:08:22;;;;;;;7.70;7.20;;;;;;;;;;5076967;28;20201;-66
2022/08/14 03:10:49;;;;;;;7.78;7.28;;;;;;;;;;5076756;28;20204;-66
2022/08/14 03:13:17;;;;;;;8.25;7.70;;;;;;;;;;5097060;28;20232;-66
2022/08/14 03:15:48;;;;;;;8.50;7.90;;;;;;;;;;5097199;28;20241;-66
2022/08/14 03:18:15;;;;;;;8.55;8.05;;;;;;;;;;5097089;28;20223;-66
2022/08/14 03:20:42;;;;;;;8.40;7.80;;;;;;;;;;5096126;28;20269;-66
2022/08/14 03:23:13;;;;;;;8.57;7.97;;;;;;;;;;5096791;28;20221;-66
2022/08/14 03:25:41;;;;;;;8.23;7.63;;;;;;;;;;5081218;28;20214;-66
2022/08/14 03:28:09;;;;;;;8.77;8.18;;;;;;;;;;5094916;28;20572;-66
2022/08/14 03:30:37;;;;;;;8.00;7.50;;;;;;;;;;5095263;28;20265;-66
2022/08/14 03:33:05;;;;;;;8.73;8.13;;;;;;;;;;5078412;28;20291;-66
2022/08/14 03:35:33;;;;;;;8.75;8.15;;;;;;;;;;5075977;28;20366;-66
2022/08/14 03:38:07;;;;;;;7.65;7.15;;;;;;;;;;5093733;28;20230;-66
2022/08/14 03:40:37;;;;;;;7.97;7.47;;;;;;;;;;5096560;28;20204;-66
2022/08/14 03:43:05;;;;;;;8.07;7.47;;;;;;;;;;5077183;28;20250;-66
2022/08/14 03:45:34;;;;;;;8.13;7.63;;;;;;;;;;5076471;28;20204;-66
2022/08/14 03:48:02;;;;;;;8.25;7.72;;;;;;;;;;5089849;28;20207;-66
2022/08/14 03:50:31;;;;;;;7.68;7.18;;;;;;;;;;5096108;28;20200;-66
2022/08/14 03:52:58;;;;;;;8.63;7.93;;;;;;;;;;5095958;28;20200;-66
2022/08/14 03:55:27;;;;;;;8.50;7.90;;;;;;;;;;5096232;28;20203;-66
2022/08/14 03:57:56;;;;;;;8.05;7.55;;;;;;;;;;5098141;28;20223;-66
2022/08/14 04:00:23;;;;;;;7.97;7.47;;;;;;;;;;5071714;28;20809;-66
2022/08/14 04:02:51;;;;;;;8.82;8.05;;;;;;;;;;5079539;28;20315;-66
2022/08/14 04:05:18;;;;;;;8.50;7.90;;;;;;;;;;5079761;28;20219;-66
2022/08/14 04:07:45;;;;;;;7.85;7.25;;;;;;;;;;5079663;28;20264;-66
2022/08/14 04:10:13;;;;;;;8.38;7.80;;;;;;;;;;5079650;28;20266;-66
2022/08/14 04:12:41;;;;;;;7.97;7.43;;;;;;;;;;5094851;28;20291;-66
2022/08/14 04:15:11;;;;;;;8.27;7.78;;;;;;;;;;5100121;28;20296;-67
2022/08/14 04:17:41;;;;;;;7.80;7.30;;;;;;;;;;5099168;28;20199;-67
2022/08/14 04:20:09;;;;;;;7.97;7.47;;;;;;;;;;5100105;28;20204;-67
2022/08/14 04:22:37;;;;;;;8.38;7.78;;;;;;;;;;5099566;28;20230;-66
2022/08/14 04:25:05;;;;;;;8.13;7.55;;;;;;;;;;5097594;28;20595;-66
2022/08/14 04:27:34;;;;;;;7.80;7.30;;;;;;;;;;5098300;28;20655;-66
2022/08/14 04:30:02;;;;;;;8.10;7.60;;;;;;;;;;5091215;28;20210;-66
2022/08/14 04:32:32;;;;;;;8.32;7.82;;;;;;;;;;5083530;28;20273;-66
2022/08/14 04:34:59;;;;;;;8.40;7.80;;;;;;;;;;5099399;28;20243;-66
2022/08/14 04:45:57;;;;;;;8.32;7.72;;;;;;;;;;5011878;28;20487;-66
2022/08/14 04:48:27;;;;;;;8.30;7.70;;;;;;;;;;4997616;28;20250;-66
2022/08/14 04:50:55;;;;;;;8.18;7.60;;;;;;;;;;5035326;28;20717;-66
2022/08/14 04:53:23;;;;;;;7.72;7.22;;;;;;;;;;5079151;28;20215;-66
2022/08/14 04:55:51;;;;;;;8.20;7.70;;;;;;;;;;5080751;28;20208;-66
2022/08/14 04:58:21;;;;;;;8.05;7.55;;;;;;;;;;5098911;28;20235;-66
2022/08/14 05:00:49;;;;;;;8.10;7.60;;;;;;;;;;5093527;28;20207;-66
2022/08/14 05:03:19;;;;;;;8.20;7.60;;;;;;;;;;5078458;28;20270;-66
2022/08/14 05:05:48;;;;;;;8.00;7.50;;;;;;;;;;5078385;28;20210;-66
2022/08/14 05:08:16;;;;;;;8.23;7.72;;;;;;;;;;5078384;28;20618;-66
2022/08/14 05:10:44;;;;;;;7.72;7.22;;;;;;;;;;5078724;28;20259;-66
2022/08/14 05:13:12;;;;;;;7.97;7.47;;;;;;;;;;5097305;28;20207;-66
2022/08/14 05:15:41;;;;;;;8.25;7.75;;;;;;;;;;5098326;28;20204;-66
2022/08/14 05:18:12;;;;;;;8.13;7.63;;;;;;;;;;5096251;28;20223;-66
2022/08/14 05:20:41;;;;;;;8.40;7.80;;;;;;;;;;5098684;28;20767;-66
2022/08/14 05:23:10;;;;;;;8.13;7.63;;;;;;;;;;5058342;28;20202;-67
2022/08/14 05:25:38;;;;;;;8.30;7.80;;;;;;;;;;5088041;28;20203;-67
2022/08/14 05:28:09;;;;;;;7.50;7.03;;;;;;;;;;5097195;28;20568;-67
2022/08/14 05:30:37;;;;;;;8.00;7.45;;;;;;;;;;5095980;28;20291;-67
2022/08/14 05:33:04;;;;;;;8.30;7.70;;;;;;;;;;5094392;28;20231;-67
2022/08/14 05:35:32;;;;;;;8.02;7.53;;;;;;;;;;5069106;28;20239;-66
2022/08/14 05:38:00;;;;;;;7.97;7.47;;;;;;;;;;5078162;28;20566;-66
2022/08/14 05:40:28;;;;;;;7.57;7.07;;;;;;;;;;5078118;28;20312;-66
2022/08/14 05:42:56;;;;;;;7.85;7.35;;;;;;;;;;5092940;28;20200;-66
2022/08/14 05:45:23;;;;;;;7.88;7.38;;;;;;;;;;5080745;28;20204;-66
2022/08/14 05:47:50;;;;;;;8.40;7.80;;;;;;;;;;5077686;28;20226;-66
2022/08/14 05:50:17;;;;;;;7.55;7.05;;;;;;;;;;5077463;28;20257;-66
2022/08/14 05:52:45;;;;;;;8.00;7.50;;;;;;;;;;5077593;28;20215;-66
2022/08/14 05:55:12;;;;;;;7.97;7.47;;;;;;;;;;5077656;28;20212;-66
2022/08/14 05:57:52;;;;;;;8.18;7.68;;;;;;;;;;5077726;28;20269;-66
2022/08/14 06:00:20;;;;;;;7.82;7.32;;;;;;;;;;5062675;28;20192;-66
2022/08/14 06:02:47;;;;;;;8.45;7.85;;;;;;;;;;5077760;28;20514;-66
2022/08/14 06:05:15;;;;;;;8.52;7.93;;;;;;;;;;5088866;28;20195;-66
2022/08/14 06:07:42;;;;;;;8.25;7.65;;;;;;;;;;5097018;28;20208;-66
2022/08/14 06:10:11;;;;;;;8.38;7.78;;;;;;;;;;5097437;28;20203;-66
2022/08/14 06:12:39;;;;;;;8.25;7.75;;;;;;;;;;5082785;28;20200;-66
2022/08/14 06:15:08;;;;;;;8.40;7.88;;;;;;;;;;5076606;28;20535;-66
2022/08/14 06:17:44;;;;;;;7.88;7.38;;;;;;;;;;5077240;28;20208;-66
2022/08/14 06:20:12;;;;;;;7.63;7.13;;;;;;;;;;5075759;28;20235;-66
2022/08/14 06:22:39;;;;;;;8.38;7.88;;;;;;;;;;5075457;28;20200;-66
2022/08/14 06:25:07;;;;;;;8.05;7.55;;;;;;;;;;5093307;28;20256;-66
2022/08/14 06:27:36;;;;;;;7.93;7.43;;;;;;;;;;5095935;28;20204;-66
2022/08/14 06:30:04;;;;;;;7.80;7.30;;;;;;;;;;5091885;28;20204;-66
2022/08/14 06:32:33;;;;;;;8.73;8.13;;;;;;;;;;5076139;28;20534;-67
2022/08/14 06:35:00;;;;;;;8.10;7.60;;;;;;;;;;5083741;28;20246;-67
2022/08/14 06:37:28;;;;;;;8.10;7.60;;;;;;;;;;5095835;28;20264;-67
2022/08/14 06:39:55;;;;;;;8.30;7.75;;;;;;;;;;5095867;28;20235;-67
2022/08/14 06:42:22;;;;;;;8.27;7.78;;;;;;;;;;5083772;28;20208;-67
2022/08/14 06:44:50;;;;;;;8.18;7.68;;;;;;;;;;5076420;28;20212;-67
2022/08/14 06:47:17;;;;;;;8.10;7.60;;;;;;;;;;5085588;28;20196;-67
2022/08/14 06:49:46;;;;;;;8.00;7.50;;;;;;;;;;5096129;28;20636;-67
2022/08/14 06:52:14;;;;;;;8.05;7.53;;;;;;;;;;5095805;28;20264;-66
2022/08/14 06:54:41;;;;;;;8.50;7.90;;;;;;;;;;5096387;28;20290;-66
2022/08/14 06:57:08;;;;;;;7.78;7.28;;;;;;;;;;5083952;28;20200;-66
2022/08/14 06:59:36;;;;;;;8.57;7.97;;;;;;;;;;5076265;28;20236;-66
2022/08/14 07:07:38;;;;;;;9.52;8.82;;;;;;;;;;5079097;28;20227;-66
2022/08/14 07:10:06;;;;;;;8.60;8.00;;;;;;;;;;5095375;28;20268;-66
2022/08/14 07:12:33;;;;;;;8.10;7.60;;;;;;;;;;5081781;28;20624;-66
2022/08/14 07:15:01;;;;;;;9.18;8.57;;;;;;;;;;5075266;28;20204;-66
2022/08/14 07:17:28;;;;;;;8.55;7.97;;;;;;;;;;5076237;28;20204;-66
2022/08/14 07:19:57;;;;;;;8.13;7.63;;;;;;;;;;5074892;28;20216;-66
2022/08/14 07:22:24;;;;;;;7.80;7.30;;;;;;;;;;5074750;28;20201;-66
2022/08/14 07:24:51;;;;;;;8.68;8.07;;;;;;;;;;5082832;28;20199;-66
2022/08/14 07:27:19;;;;;;;7.82;7.32;;;;;;;;;;5094570;28;20288;-66
2022/08/14 07:29:46;;;;;;;7.97;7.47;;;;;;;;;;5095121;28;20265;-66
2022/08/14 07:32:14;;;;;;;8.45;7.82;;;;;;;;;;5098046;28;20211;-66
2022/08/14 07:34:41;;;;;;;8.27;7.78;;;;;;;;;;5098525;28;20222;-66
2022/08/14 07:37:09;;;;;;;7.93;7.43;;;;;;;;;;5085356;28;20581;-66
2022/08/14 07:39:37;;;;;;;7.80;7.30;;;;;;;;;;5078364;28;20247;-66
2022/08/14 07:42:05;;;;;;;7.90;7.40;;;;;;;;;;5086502;28;20196;-66
2022/08/14 07:44:32;;;;;;;7.25;6.75;;;;;;;;;;5098591;28;20574;-66
2022/08/14 07:46:59;;;;;;;7.30;6.80;;;;;;;;;;5091538;28;20551;-66
2022/08/14 07:49:27;;;;;;;7.70;7.20;;;;;;;;;;5078321;28;20694;-66
2022/08/14 07:51:55;;;;;;;7.63;7.13;;;;;;;;;;5098248;28;20207;-66
2022/08/14 07:54:27;;;;;;;7.38;6.88;;;;;;;;;;5091677;28;20596;-66
2022/08/14 07:56:54;;;;;;;7.43;6.93;;;;;;;;;;5078685;28;20196;-66
2022/08/14 07:59:23;;;;;;;7.75;7.25;;;;;;;;;;5078538;28;20228;-66
2022/08/14 08:01:50;;;;;;;7.32;6.82;;;;;;;;;;5079340;28;20201;-67
2022/08/14 08:04:18;;;;;;;7.40;6.90;;;;;;;;;;5078047;28;20201;-67
2022/08/14 08:06:46;;;;;;;7.70;7.20;;;;;;;;;;5077389;28;20207;-67
2022/08/14 08:09:13;;;;;;;7.47;6.97;;;;;;;;;;5091074;28;20482;-67
2022/08/14 08:11:42;;;;;;;7.38;6.88;;;;;;;;;;5080701;28;20204;-67
2022/08/14 08:14:09;;;;;;;8.13;7.57;;;;;;;;;;5077716;28;20231;-67
2022/08/14 08:16:37;;;;;;;7.68;7.18;;;;;;;;;;5077364;28;20211;-67
2022/08/14 08:19:05;;;;;;;7.45;6.95;;;;;;;;;;5077739;28;20314;-67
2022/08/14 08:21:33;;;;;;;7.40;6.90;;;;;;;;;;5077764;28;20208;-67
2022/08/14 08:24:00;;;;;;;7.40;6.80;;;;;;;;;;5078085;28;20197;-67
2022/08/14 08:26:30;;;;;;;7.22;6.72;;;;;;;;;;5091302;28;20195;-67
2022/08/14 08:28:59;;;;;;;7.18;6.72;;;;;;;;;;5097414;28;20199;-67
2022/08/14 08:31:27;;;;;;;7.05;6.57;;;;;;;;;;5097175;28;20199;-67
2022/08/14 08:33:54;;;;;;;6.72;6.28;;;;;;;;;;5089312;28;20204;-67
2022/08/14 08:36:21;;;;;;;6.80;6.40;;;;;;;;;;5076964;28;20239;-67
2022/08/14 08:38:49;;;;;;;7.28;6.78;;;;;;;;;;5076722;28;20211;-67
2022/08/14 08:41:17;;;;;;;7.13;6.63;;;;;;;;;;5090781;28;20459;-67
2022/08/14 08:43:44;;;;;;;7.07;6.57;;;;;;;;;;5079962;28;20212;-67
2022/08/14 08:46:14;;;;;;;7.53;6.82;;;;;;;;;;5089435;28;20211;-67
2022/08/14 08:48:47;;;;;;;7.45;6.88;;;;;;;;;;5076557;28;20307;-67
2022/08/14 08:51:27;;;;;;;7.72;7.22;;;;;;;;;;5076652;28;20712;-67
2022/08/14 08:53:58;;;;;;;7.50;7.00;;;;;;;;;;5077148;28;20204;-66
2022/08/14 08:56:35;;;;;;;7.60;7.10;;;;;;;;;;5076451;28;20208;-66
2022/08/14 08:59:02;;;;;;;7.43;6.93;;;;;;;;;;5076527;28;20269;-66
2022/08/14 09:01:31;;;;;;;7.13;6.63;;;;;;;;;;5076564;28;20231;-66
2022/08/14 09:04:02;;;;;;;7.45;6.93;;;;;;;;;;5077390;28;20569;-66
2022/08/14 09:06:29;;;;;;;7.13;6.63;;;;;;;;;;5076802;28;20269;-67
2022/08/14 09:08:57;;;;;;;7.22;6.72;;;;;;;;;;5076040;28;20631;-67
2022/08/14 09:11:24;;;;;;;7.38;6.88;;;;;;;;;;5076005;28;20336;-67
2022/08/14 09:13:52;;;;;;;7.80;7.30;;;;;;;;;;5076210;28;20257;-67
2022/08/14 09:16:21;;;;;;;7.72;7.22;;;;;;;;;;5076601;28;20345;-67
2022/08/14 09:18:50;;;;;;;7.53;7.03;;;;;;;;;;5076374;28;20204;-67
2022/08/14 09:21:17;;;;;;;7.93;7.43;;;;;;;;;;5076165;28;20219;-67
2022/08/14 09:23:44;;;;;;;6.90;6.45;;;;;;;;;;5093360;28;20199;-67
2022/08/14 09:26:12;;;;;;;8.10;7.50;;;;;;;;;;5095710;28;20199;-67
2022/08/14 09:28:39;;;;;;;7.45;6.95;;;;;;;;;;5096453;28;20489;-67
2022/08/14 09:31:07;;;;;;;7.72;7.22;;;;;;;;;;5091850;28;20246;-67
2022/08/14 09:33:44;;;;;;;7.55;7.05;;;;;;;;;;5075216;28;20854;-67
2022/08/14 09:36:26;;;;;;;7.72;7.13;;;;;;;;;;5074765;28;20296;-67
2022/08/14 09:38:59;;;;;;;7.57;6.97;;;;;;;;;;5074538;28;20204;-66
2022/08/14 09:41:35;;;;;;;7.72;7.13;;;;;;;;;;5090528;28;20294;-66
2022/08/14 09:44:06;;;;;;;7.85;7.25;;;;;;;;;;5095629;28;20207;-66
2022/08/14 09:46:33;;;;;;;7.82;7.30;;;;;;;;;;5079118;28;20287;-66
2022/08/14 09:49:01;;;;;;;7.90;7.40;;;;;;;;;;5075322;28;20204;-66
2022/08/14 09:51:30;;;;;;;8.27;7.68;;;;;;;;;;5075635;28;20196;-66
2022/08/14 09:54:02;;;;;;;7.32;6.82;;;;;;;;;;5074981;28;20212;-66
2022/08/14 09:56:29;;;;;;;7.93;7.40;;;;;;;;;;5076196;28;20298;-66
2022/08/14 09:58:59;;;;;;;7.32;6.80;;;;;;;;;;5076018;28;20619;-66
2022/08/14 10:01:36;;;;;;;7.53;7.03;;;;;;;;;;5076167;28;20224;-66
2022/08/14 10:04:06;;;;;;;8.07;7.55;;;;;;;;;;5075310;28;20196;-66
2022/08/14 10:06:44;;;;;;;8.27;7.68;;;;;;;;;;5075204;28;20196;-66
2022/08/14 10:09:12;;;;;;;7.43;6.93;;;;;;;;;;5074758;28;20212;-66
2022/08/14 10:11:40;;;;;;;8.20;7.60;;;;;;;;;;5090722;28;20580;-66
2022/08/14 10:14:16;;;;;;;8.18;7.57;;;;;;;;;;5091752;28;20201;-66
2022/08/14 10:16:44;;;;;;;8.13;7.47;;;;;;;;;;5075537;28;20210;-66
2022/08/14 10:19:12;;;;;;;7.75;7.05;;;;;;;;;;5055585;28;20496;-66
2022/08/14 10:21:42;;;;;;;7.88;7.28;;;;;;;;;;5064549;28;20204;-66
2022/08/14 10:24:11;;;;;;;7.85;7.25;;;;;;;;;;5075454;28;20212;-66
2022/08/14 10:26:42;;;;;;;8.02;7.43;;;;;;;;;;5083632;28;20242;-66
2022/08/14 10:29:16;;;;;;;8.07;7.45;;;;;;;;;;5094234;28;20265;-66
2022/08/14 10:31:43;;;;;;;7.68;7.18;;;;;;;;;;5093125;28;20200;-66
2022/08/14 10:34:11;;;;;;;8.00;7.40;;;;;;;;;;5075175;28;20270;-66
2022/08/14 10:36:42;;;;;;;7.20;6.70;;;;;;;;;;5075473;28;20232;-66
2022/08/14 10:39:16;;;;;;;7.68;7.18;;;;;;;;;;5075022;28;20204;-67
2022/08/14 10:41:44;;;;;;;7.60;7.10;;;;;;;;;;5091369;28;20196;-67
2022/08/14 10:44:13;;;;;;;7.75;7.25;;;;;;;;;;5093359;28;20631;-67
2022/08/14 10:46:44;;;;;;;8.05;7.50;;;;;;;;;;5077758;28;20294;-67
2022/08/14 10:49:19;;;;;;;7.55;7.05;;;;;;;;;;5074313;28;20212;-66
2022/08/14 10:52:00;;;;;;;7.78;7.18;;;;;;;;;;5074614;28;20208;-66
2022/08/14 10:54:35;;;;;;;7.95;7.35;;;;;;;;;;5074844;28;20239;-66
2022/08/14 10:57:17;;;;;;;7.97;7.38;;;;;;;;;;5074941;28;20208;-66
2022/08/14 10:59:46;;;;;;;7.53;6.93;;;;;;;;;;5074379;28;20224;-66
2022/08/14 11:02:21;;;;;;;7.95;7.35;;;;;;;;;;5074378;28;20200;-66
2022/08/14 11:04:59;;;;;;;7.55;7.05;;;;;;;;;;5074820;28;20211;-66
2022/08/14 11:07:28;;;;;;;7.93;7.32;;;;;;;;;;5078233;28;20606;-66
2022/08/14 11:09:56;;;;;;;7.90;7.30;;;;;;;;;;5080129;28;20203;-66
2022/08/14 11:12:24;;;;;;;7.20;6.70;;;;;;;;;;5098082;28;20195;-66
2022/08/14 11:14:52;;;;;;;7.55;6.93;;;;;;;;;;5096770;28;20230;-66
2022/08/14 11:17:20;;;;;;;7.30;6.80;;;;;;;;;;5078269;28;20204;-66
2022/08/14 11:19:49;;;;;;;8.00;7.40;;;;;;;;;;5078243;28;20212;-66
2022/08/14 11:22:18;;;;;;;7.57;7.07;;;;;;;;;;5076987;28;20196;-66
2022/08/14 11:24:47;;;;;;;7.60;7.00;;;;;;;;;;5087562;28;20264;-66
2022/08/14 11:27:15;;;;;;;7.63;7.03;;;;;;;;;;5098937;28;20213;-66
2022/08/14 11:29:44;;;;;;;7.53;7.03;;;;;;;;;;5083770;28;20231;-66
2022/08/14 11:32:11;;;;;;;7.45;6.95;;;;;;;;;;5085384;28;20253;-66
2022/08/14 11:34:38;;;;;;;7.95;7.40;;;;;;;;;;5098880;28;20455;-66
2022/08/14 11:37:09;;;;;;;7.70;7.10;;;;;;;;;;5098744;28;20276;-66
2022/08/14 11:39:36;;;;;;;8.13;7.53;;;;;;;;;;5090371;28;20777;-66
2022/08/14 11:42:06;;;;;;;7.53;7.03;;;;;;;;;;5078233;28;20554;-66
2022/08/14 11:44:33;;;;;;;7.30;6.80;;;;;;;;;;5079288;28;20205;-66
2022/08/14 11:47:02;;;;;;;7.22;6.72;;;;;;;;;;5087146;28;20203;-66
2022/08/14 11:49:30;;;;;;;7.18;6.68;;;;;;;;;;5098422;28;20208;-66
2022/08/14 11:51:58;;;;;;;7.22;6.72;;;;;;;;;;5062365;28;20184;-66
2022/08/14 11:54:25;;;;;;;7.97;7.38;;;;;;;;;;5078929;28;20555;-66
2022/08/14 11:56:53;;;;;;;7.43;6.93;;;;;;;;;;5078036;28;20199;-66
2022/08/14 11:59:21;;;;;;;7.55;7.05;;;;;;;;;;5078635;28;20215;-66
2022/08/14 12:01:49;;;;;;;7.50;7.00;;;;;;;;;;5088954;28;20527;-66
2022/08/14 12:04:17;;;;;;;6.95;6.45;;;;;;;;;;5098302;28;20207;-67
2022/08/14 12:06:47;;;;;;;7.55;6.97;;;;;;;;;;5097262;28;20223;-67
2022/08/14 12:09:15;;;;;;;7.25;6.75;;;;;;;;;;5098141;28;20324;-67
2022/08/14 12:11:43;;;;;;;7.72;7.13;;;;;;;;;;5081658;28;20262;-67
2022/08/14 12:14:11;;;;;;;7.55;6.95;;;;;;;;;;5061269;28;20623;-67
2022/08/14 12:16:40;;;;;;;7.47;6.97;;;;;;;;;;5076640;28;20205;-66
2022/08/14 12:19:07;;;;;;;7.28;6.68;;;;;;;;;;5088039;28;20277;-66
2022/08/14 12:21:34;;;;;;;6.97;6.47;;;;;;;;;;5097835;28;20235;-66
2022/08/14 12:24:04;;;;;;;7.45;6.93;;;;;;;;;;5098357;28;20734;-66
2022/08/14 12:26:32;;;;;;;7.85;7.30;;;;;;;;;;5096733;28;20553;-66
2022/08/14 12:29:07;;;;;;;7.90;7.30;;;;;;;;;;5096171;28;20337;-66
2022/08/14 12:31:34;;;;;;;7.35;6.70;;;;;;;;;;5097590;28;20260;-66
2022/08/14 12:34:04;;;;;;;6.95;6.45;;;;;;;;;;5097905;28;20199;-66
2022/08/14 12:36:32;;;;;;;7.80;7.20;;;;;;;;;;5087205;28;20228;-66
2022/08/14 12:39:00;;;;;;;7.22;6.72;;;;;;;;;;5077194;28;20208;-66
2022/08/14 12:41:30;;;;;;;7.63;7.07;;;;;;;;;;5091924;28;20580;-66
2022/08/14 12:43:58;;;;;;;7.15;6.65;;;;;;;;;;5097744;28;20200;-66
2022/08/14 12:46:26;;;;;;;7.10;6.60;;;;;;;;;;5093496;28;20270;-66
2022/08/14 12:48:54;;;;;;;6.93;6.43;;;;;;;;;;5077437;28;20197;-66
2022/08/14 12:51:24;;;;;;;7.13;6.63;;;;;;;;;;5094702;28;20600;-66
2022/08/14 12:53:52;;;;;;;7.30;6.80;;;;;;;;;;5097406;28;20215;-66
2022/08/14 12:56:20;;;;;;;6.68;6.28;;;;;;;;;;5090636;28;20197;-66
2022/08/14 12:58:50;;;;;;;6.93;6.43;;;;;;;;;;5077033;28;20274;-66
2022/08/14 13:01:20;;;;;;;7.50;6.95;;;;;;;;;;5085539;28;20222;-66
2022/08/14 13:03:48;;;;;;;6.95;6.43;;;;;;;;;;5096752;28;20552;-66
2022/08/14 13:06:16;;;;;;;7.03;6.43;;;;;;;;;;5096950;28;20196;-66
2022/08/14 13:08:45;;;;;;;6.70;6.30;;;;;;;;;;5096446;28;20316;-66
2022/08/14 13:11:13;;;;;;;7.05;6.55;;;;;;;;;;5085131;28;20197;-66
2022/08/14 13:13:43;;;;;;;7.20;6.70;;;;;;;;;;5076650;28;20196;-66
2022/08/14 13:16:13;;;;;;;7.72;7.13;;;;;;;;;;5082300;28;20206;-66
2022/08/14 13:18:41;;;;;;;7.25;6.75;;;;;;;;;;5097400;28;20203;-66
2022/08/14 13:21:11;;;;;;;7.78;7.15;;;;;;;;;;5077324;28;20223;-66
2022/08/14 13:23:41;;;;;;;7.03;6.53;;;;;;;;;;5090854;28;20196;-66
2022/08/14 13:26:10;;;;;;;7.40;6.80;;;;;;;;;;5096399;28;20231;-66
2022/08/14 13:28:41;;;;;;;7.50;6.97;;;;;;;;;;5085026;28;20266;-66
2022/08/14 13:31:09;;;;;;;7.55;7.05;;;;;;;;;;5076781;28;20211;-66
2022/08/14 13:33:37;;;;;;;7.60;6.97;;;;;;;;;;5076225;28;20265;-66
2022/08/14 13:36:05;;;;;;;7.35;6.82;;;;;;;;;;5075784;28;20318;-66
2022/08/14 13:38:33;;;;;;;7.93;7.32;;;;;;;;;;5068155;28;20201;-66
2022/08/14 13:41:05;;;;;;;7.13;6.63;;;;;;;;;;5080140;28;20224;-66
2022/08/14 13:43:38;;;;;;;7.88;7.28;;;;;;;;;;5075796;28;20232;-66
2022/08/14 13:46:06;;;;;;;7.18;6.68;;;;;;;;;;5078821;28;20219;-66
2022/08/14 13:48:33;;;;;;;7.40;6.90;;;;;;;;;;5067494;28;20505;-66
2022/08/14 13:51:01;;;;;;;7.38;6.80;;;;;;;;;;5087844;28;20490;-66
2022/08/14 13:53:28;;;;;;;7.78;7.28;;;;;;;;;;5095837;28;20200;-66
2022/08/14 13:55:56;;;;;;;7.40;6.90;;;;;;;;;;5096258;28;20314;-66
2022/08/14 13:58:23;;;;;;;7.97;7.28;;;;;;;;;;5096341;28;20653;-67
2022/08/14 14:00:53;;;;;;;7.63;7.03;;;;;;;;;;5095610;28;20334;-66
2022/08/14 14:03:21;;;;;;;7.97;7.38;;;;;;;;;;5096231;28;20210;-66
2022/08/14 14:05:52;;;;;;;7.65;7.15;;;;;;;;;;5096583;28;20203;-66
2022/08/14 14:08:20;;;;;;;7.63;7.05;;;;;;;;;;5085544;28;20234;-66
2022/08/14 14:10:48;;;;;;;7.28;6.78;;;;;;;;;;5083180;28;20188;-66
2022/08/14 14:13:18;;;;;;;7.63;7.13;;;;;;;;;;5096089;28;20187;-66
2022/08/14 14:15:48;;;;;;;8.00;7.40;;;;;;;;;;5080363;28;20201;-66
2022/08/14 14:18:16;;;;;;;7.45;6.95;;;;;;;;;;5075618;28;20230;-67
2022/08/14 14:20:45;;;;;;;8.25;7.65;;;;;;;;;;5081735;28;20299;-67
2022/08/14 14:23:13;;;;;;;7.63;7.00;;;;;;;;;;5087313;28;20279;-67
2022/08/14 14:25:42;;;;;;;8.07;7.47;;;;;;;;;;5075236;28;20208;-67
2022/08/14 14:28:10;;;;;;;7.80;7.20;;;;;;;;;;5075052;28;20204;-67
2022/08/14 14:30:41;;;;;;;8.73;8.02;;;;;;;;;;5074649;28;20265;-67
2022/08/14 14:33:10;;;;;;;7.80;7.30;;;;;;;;;;5074983;28;20192;-67
2022/08/14 14:35:38;;;;;;;8.77;8.18;;;;;;;;;;5074968;28;20239;-67
2022/08/14 14:38:08;;;;;;;8.68;8.07;;;;;;;;;;5074711;28;20265;-68
2022/08/14 14:40:38;;;;;;;8.27;7.57;;;;;;;;;;5080513;28;20295;-67
2022/08/14 14:43:06;;;;;;;8.55;7.85;;;;;;;;;;5091854;28;20278;-67
2022/08/14 14:45:34;;;;;;;8.20;7.60;;;;;;;;;;5078105;28;20534;-67
2022/08/14 14:48:01;;;;;;;8.60;8.00;;;;;;;;;;5095413;28;20203;-67
2022/08/14 14:50:29;;;;;;;8.00;7.50;;;;;;;;;;5095578;28;20484;-67
2022/08/14 14:52:58;;;;;;;8.50;7.90;;;;;;;;;;5075034;28;20588;-67
2022/08/14 14:55:27;;;;;;;8.15;7.55;;;;;;;;;;5074312;28;20270;-67
2022/08/14 14:57:55;;;;;;;9.77;8.23;;;;;;;;;;5074835;28;20263;-67
2022/08/14 15:00:22;;;;;;;9.25;8.50;;;;;;;;;;5073726;28;20297;-67
2022/08/14 15:02:51;;;;;;;8.65;8.00;;;;;;;;;;5074822;28;20220;-67
2022/08/14 15:05:18;;;;;;;8.68;8.00;;;;;;;;;;5074793;28;20196;-67
2022/08/14 15:07:47;;;;;;;8.38;7.78;;;;;;;;;;5075399;28;20283;-67